createdAt,value
2022-09-20T00:00:09.582Z,2.36
2022-09-20T00:01:09.563Z,2.56
2022-09-20T00:02:09.467Z,2.56
2022-09-20T00:03:09.455Z,2.66
2022-09-20T00:04:09.535Z,2.56
2022-09-20T00:05:09.520Z,2.87
2022-09-20T00:06:09.422Z,2.76
2022-09-20T00:07:09.410Z,2.66
2022-09-20T00:08:09.400Z,2.87
2022-09-20T00:09:09.389Z,2.87
2022-09-20T00:10:09.377Z,2.97
2022-09-20T00:11:09.367Z,2.97
2022-09-20T00:12:09.363Z,2.87
2022-09-20T00:13:09.344Z,2.97
2022-09-20T00:14:09.375Z,2.97
2022-09-20T00:15:09.321Z,2.97
2022-09-20T00:16:09.362Z,2.76
2022-09-20T00:17:09.299Z,2.97
2022-09-20T00:18:09.289Z,3.28
2022-09-20T00:19:09.323Z,3.08
2022-09-20T00:20:09.267Z,2.76
2022-09-20T00:21:09.254Z,3.38
2022-09-20T00:22:09.247Z,3.08
2022-09-20T00:23:09.232Z,3.08
2022-09-20T00:24:09.223Z,3.38
2022-09-20T00:25:09.217Z,3.28
2022-09-20T00:26:09.201Z,3.18
2022-09-20T00:27:09.188Z,3.18
2022-09-20T00:28:09.179Z,3.18
2022-09-20T00:29:09.166Z,3.08
2022-09-20T00:30:09.181Z,3.28
2022-09-20T00:31:09.161Z,2.67
2022-09-20T00:32:09.182Z,3.18
2022-09-20T00:33:09.122Z,2.97
2022-09-20T00:34:09.189Z,2.76
2022-09-20T00:35:09.127Z,3.08
2022-09-20T00:36:09.094Z,2.97
2022-09-20T00:37:09.078Z,2.87
2022-09-20T00:38:09.093Z,2.87
2022-09-20T00:39:09.137Z,2.46
2022-09-20T00:40:09.162Z,2.87
2022-09-20T00:41:09.172Z,2.76
2022-09-20T00:42:09.194Z,2.76
2022-09-20T00:43:09.144Z,2.67
2022-09-20T00:44:09.180Z,2.66
2022-09-20T00:45:09.138Z,2.25
2022-09-20T00:46:09.069Z,2.46
2022-09-20T00:47:08.969Z,2.66
2022-09-20T00:48:08.959Z,2.46
2022-09-20T00:49:08.992Z,2.36
2022-09-20T00:50:08.937Z,2.15
2022-09-20T00:51:08.923Z,2.25
2022-09-20T00:52:08.917Z,2.05
2022-09-20T00:53:08.904Z,2.05
2022-09-20T00:54:08.894Z,2.04
2022-09-20T00:55:08.885Z,1.95
2022-09-20T00:56:08.871Z,1.74
2022-09-20T00:57:08.862Z,1.64
2022-09-20T00:58:08.851Z,1.43
2022-09-20T00:59:08.839Z,1.33
2022-09-20T01:00:08.828Z,1.53
2022-09-20T01:01:08.870Z,1.33
2022-09-20T01:02:08.882Z,1.23
2022-09-20T01:03:08.793Z,1.23
2022-09-20T01:04:08.808Z,0.92
2022-09-20T01:05:08.773Z,1.02
2022-09-20T01:06:08.762Z,0.82
2022-09-20T01:07:08.750Z,0.82
2022-09-20T01:08:08.746Z,0.82
2022-09-20T01:09:08.728Z,0.61
2022-09-20T01:10:08.719Z,0.51
2022-09-20T01:11:08.705Z,0.82
2022-09-20T01:12:08.700Z,0.61
2022-09-20T01:13:08.691Z,0.71
2022-09-20T01:14:08.674Z,0.51
2022-09-20T01:15:08.669Z,0.51
2022-09-20T01:16:08.763Z,0.41
2022-09-20T01:17:08.645Z,0.41
2022-09-20T01:18:08.656Z,0.31
2022-09-20T01:19:08.658Z,0.31
2022-09-20T01:20:08.621Z,0.31
2022-09-20T01:21:08.595Z,0.10
2022-09-20T01:22:08.586Z,0.31
2022-09-20T01:23:08.578Z,0.20
2022-09-20T01:24:08.565Z,0.10
2022-09-20T01:25:08.553Z,0.00
2022-09-20T01:26:08.543Z,0.00
2022-09-20T01:27:08.533Z,0.10
2022-09-20T01:28:08.520Z,0.00
2022-09-20T01:29:08.508Z,0.00
2022-09-20T01:30:08.497Z,0.00
2022-09-20T01:31:08.487Z,0.00
2022-09-20T01:32:08.606Z,0.00
2022-09-20T01:33:08.465Z,0.00
2022-09-20T01:34:08.524Z,0.00
2022-09-20T01:35:08.445Z,0.10
2022-09-20T01:36:08.432Z,0.00
2022-09-20T01:37:08.421Z,0.10
2022-09-20T01:38:08.411Z,0.10
2022-09-20T01:39:08.398Z,0.10
2022-09-20T01:40:08.442Z,0.10
2022-09-20T01:41:08.376Z,0.10
2022-09-20T01:42:08.367Z,0.20
2022-09-20T01:43:08.358Z,0.20
2022-09-20T01:44:08.344Z,0.20
2022-09-20T01:45:08.335Z,0.31
2022-09-20T01:46:08.403Z,0.20
2022-09-20T01:47:08.309Z,0.31
2022-09-20T01:48:08.301Z,0.31
2022-09-20T01:49:08.328Z,0.31
2022-09-20T01:50:08.304Z,0.31
2022-09-20T01:51:08.267Z,0.41
2022-09-20T01:52:08.259Z,0.41
2022-09-20T01:53:08.245Z,0.41
2022-09-20T01:54:08.236Z,0.51
2022-09-20T01:55:08.225Z,0.51
2022-09-20T01:56:08.216Z,0.51
2022-09-20T01:57:08.201Z,0.51
2022-09-20T01:58:08.193Z,0.61
2022-09-20T01:59:23.108Z,0.61
2022-09-20T02:00:08.169Z,0.61
2022-09-20T02:01:08.257Z,0.61
2022-09-20T02:02:08.219Z,0.61
2022-09-20T02:03:08.135Z,0.61
2022-09-20T02:04:08.125Z,0.41
2022-09-20T02:05:08.113Z,0.61
2022-09-20T02:06:08.130Z,0.51
2022-09-20T02:07:08.090Z,0.41
2022-09-20T02:08:08.080Z,0.61
2022-09-20T02:09:08.071Z,0.61
2022-09-20T02:10:08.060Z,0.31
2022-09-20T02:11:08.048Z,0.51
2022-09-20T02:12:08.043Z,0.51
2022-09-20T02:13:08.026Z,0.51
2022-09-20T02:14:08.029Z,0.41
2022-09-20T02:15:08.004Z,0.51
2022-09-20T02:16:08.026Z,0.51
2022-09-20T02:17:07.982Z,0.41
2022-09-20T02:18:07.972Z,0.51
2022-09-20T02:19:07.982Z,0.41
2022-09-20T02:20:07.952Z,0.41
2022-09-20T02:21:07.939Z,0.41
2022-09-20T02:22:07.952Z,0.31
2022-09-20T02:23:07.994Z,0.31
2022-09-20T02:24:07.909Z,0.20
2022-09-20T02:25:07.895Z,0.10
2022-09-20T02:26:07.886Z,0.31
2022-09-20T02:27:07.875Z,0.10
2022-09-20T02:28:07.863Z,0.10
2022-09-20T02:29:07.873Z,0.10
2022-09-20T02:30:07.839Z,0.10
2022-09-20T02:31:07.828Z,0.10
2022-09-20T02:32:07.905Z,0.10
2022-09-20T02:33:07.807Z,0.10
2022-09-20T02:34:07.798Z,0.00
2022-09-20T02:35:07.783Z,0.10
2022-09-20T02:36:07.775Z,0.00
2022-09-20T02:37:07.764Z,0.00
2022-09-20T02:38:07.775Z,0.00
2022-09-20T02:39:07.739Z,0.00
2022-09-20T02:40:07.773Z,0.00
2022-09-20T02:41:07.719Z,0.00
2022-09-20T02:42:07.709Z,0.00
2022-09-20T02:43:07.697Z,0.00
2022-09-20T02:44:07.796Z,0.00
2022-09-20T02:45:07.683Z,0.00
2022-09-20T02:46:07.764Z,0.00
2022-09-20T02:47:07.654Z,0.00
2022-09-20T02:48:07.643Z,0.00
2022-09-20T02:49:07.632Z,0.10
2022-09-20T02:50:07.622Z,0.00
2022-09-20T02:51:07.611Z,0.00
2022-09-20T02:52:07.600Z,0.20
2022-09-20T02:53:07.587Z,0.10
2022-09-20T02:54:07.601Z,0.00
2022-09-20T02:55:07.567Z,0.20
2022-09-20T02:56:07.555Z,0.00
2022-09-20T02:57:07.544Z,0.00
2022-09-20T02:58:07.534Z,0.00
2022-09-20T02:59:07.650Z,0.00
2022-09-20T03:00:07.521Z,0.00
2022-09-20T03:01:07.583Z,0.10
2022-09-20T03:02:07.564Z,0.00
2022-09-20T03:03:07.483Z,0.41
2022-09-20T03:04:07.468Z,0.20
2022-09-20T03:05:07.457Z,0.41
2022-09-20T03:06:07.447Z,0.61
2022-09-20T03:07:07.439Z,0.61
2022-09-20T03:08:07.424Z,0.41
2022-09-20T03:09:07.414Z,0.82
2022-09-20T03:10:07.426Z,0.00
2022-09-20T03:11:07.390Z,1.12
2022-09-20T03:12:07.380Z,0.92
2022-09-20T03:13:07.370Z,1.03
2022-09-20T03:14:07.469Z,0.92
2022-09-20T03:15:07.347Z,1.23
2022-09-20T03:16:07.404Z,1.12
2022-09-20T03:17:07.382Z,1.64
2022-09-20T03:18:07.316Z,1.84
2022-09-20T03:19:07.301Z,1.13
2022-09-20T03:20:07.293Z,1.43
2022-09-20T03:21:07.282Z,1.43
2022-09-20T03:22:07.270Z,1.54
2022-09-20T03:23:07.264Z,1.84
2022-09-20T03:24:07.250Z,1.74
2022-09-20T03:25:07.236Z,1.64
2022-09-20T03:26:07.257Z,1.74
2022-09-20T03:27:07.213Z,1.74
2022-09-20T03:28:07.204Z,1.95
2022-09-20T03:29:07.330Z,1.95
2022-09-20T03:30:07.184Z,1.95
2022-09-20T03:31:07.171Z,1.95
2022-09-20T03:32:07.240Z,2.05
2022-09-20T03:33:07.154Z,2.05
2022-09-20T03:34:07.143Z,1.95
2022-09-20T03:35:07.127Z,1.84
2022-09-20T03:36:07.119Z,2.05
2022-09-20T03:37:07.104Z,1.84
2022-09-20T03:38:07.094Z,1.84
2022-09-20T03:39:07.083Z,1.84
2022-09-20T03:40:07.150Z,1.84
2022-09-20T03:41:07.061Z,1.84
2022-09-20T03:42:07.073Z,1.74
2022-09-20T03:43:07.039Z,1.64
2022-09-20T03:44:07.063Z,1.54
2022-09-20T03:45:07.020Z,1.43
2022-09-20T03:46:07.063Z,1.43
2022-09-20T03:47:06.995Z,1.54
2022-09-20T03:48:06.985Z,1.54
2022-09-20T03:49:06.974Z,1.54
2022-09-20T03:50:06.968Z,1.54
2022-09-20T03:51:06.959Z,1.64
2022-09-20T03:52:06.940Z,1.64
2022-09-20T03:53:06.927Z,1.54
2022-09-20T03:54:06.918Z,1.33
2022-09-20T03:55:06.905Z,1.54
2022-09-20T03:56:06.900Z,1.54
2022-09-20T03:57:06.885Z,1.64
2022-09-20T03:58:08.951Z,1.74
2022-09-20T03:59:07.090Z,1.64
2022-09-20T04:00:37.273Z,1.64
2022-09-20T04:01:37.300Z,1.64
2022-09-20T04:02:37.306Z,1.84
2022-09-20T04:03:37.188Z,1.84
2022-09-20T04:04:37.177Z,1.74
2022-09-20T04:05:37.169Z,1.74
2022-09-20T04:06:37.152Z,1.74
2022-09-20T04:07:37.145Z,1.54
2022-09-20T04:08:40.230Z,1.74
2022-09-20T04:09:37.122Z,1.84
2022-09-20T04:10:37.110Z,2.15
2022-09-20T04:11:37.100Z,1.95
2022-09-20T04:12:37.085Z,1.95
2022-09-20T04:13:37.103Z,1.74
2022-09-20T04:14:37.066Z,1.74
2022-09-20T04:15:37.060Z,1.74
2022-09-20T04:16:37.112Z,1.64
2022-09-20T04:17:37.050Z,1.84
2022-09-20T04:18:37.021Z,1.74
2022-09-20T04:19:37.012Z,1.74
2022-09-20T04:20:36.998Z,1.74
2022-09-20T04:21:36.993Z,1.84
2022-09-20T04:22:36.980Z,1.74
2022-09-20T04:23:36.969Z,1.84
2022-09-20T04:24:36.955Z,1.74
2022-09-20T04:25:39.724Z,1.64
2022-09-20T04:26:37.034Z,1.74
2022-09-20T04:27:36.922Z,1.74
2022-09-20T04:28:36.912Z,1.84
2022-09-20T04:29:36.919Z,2.05
2022-09-20T04:30:36.893Z,1.84
2022-09-20T04:31:36.955Z,1.64
2022-09-20T04:32:36.866Z,1.74
2022-09-20T04:33:36.855Z,1.84
2022-09-20T04:34:36.848Z,1.54
2022-09-20T04:35:36.833Z,1.74
2022-09-20T04:36:36.824Z,1.54
2022-09-20T04:37:36.812Z,1.74
2022-09-20T04:38:36.806Z,1.54
2022-09-20T04:39:36.790Z,1.43
2022-09-20T04:40:36.942Z,1.64
2022-09-20T04:41:36.768Z,1.64
2022-09-20T04:42:36.757Z,1.54
2022-09-20T04:43:36.747Z,1.64
2022-09-20T04:44:36.737Z,1.54
2022-09-20T04:45:36.826Z,1.54
2022-09-20T04:46:36.715Z,1.54
2022-09-20T04:47:36.705Z,1.54
2022-09-20T04:48:36.692Z,1.64
2022-09-20T04:49:36.685Z,1.54
2022-09-20T04:50:36.669Z,1.54
2022-09-20T04:51:36.700Z,1.64
2022-09-20T04:52:36.651Z,1.64
2022-09-20T04:53:36.645Z,1.64
2022-09-20T04:54:36.626Z,1.54
2022-09-20T04:55:36.617Z,1.43
2022-09-20T04:56:36.610Z,1.33
2022-09-20T04:57:36.592Z,1.12
2022-09-20T04:58:36.584Z,0.92
2022-09-20T04:59:36.572Z,0.92
2022-09-20T05:00:36.572Z,0.82
2022-09-20T05:01:36.662Z,0.92
2022-09-20T05:02:36.596Z,0.92
2022-09-20T05:03:36.528Z,0.82
2022-09-20T05:04:36.528Z,0.82
2022-09-20T05:05:36.507Z,0.82
2022-09-20T05:06:36.498Z,0.71
2022-09-20T05:07:36.674Z,0.71
2022-09-20T05:08:36.474Z,0.61
2022-09-20T05:09:36.458Z,0.51
2022-09-20T05:10:36.453Z,0.61
2022-09-20T05:11:36.437Z,0.51
2022-09-20T05:12:36.436Z,0.51
2022-09-20T05:13:36.419Z,0.41
2022-09-20T05:14:36.407Z,0.20
2022-09-20T05:15:36.398Z,0.10
2022-09-20T05:16:37.825Z,0.10
2022-09-20T05:17:36.394Z,0.00
2022-09-20T05:18:36.365Z,0.00
2022-09-20T05:19:36.354Z,0.10
2022-09-20T05:20:36.340Z,0.00
2022-09-20T05:21:36.327Z,0.00
2022-09-20T05:22:36.317Z,0.00
2022-09-20T05:23:36.305Z,0.00
2022-09-20T05:24:36.294Z,0.00
2022-09-20T05:25:36.283Z,0.00
2022-09-20T05:26:36.272Z,0.00
2022-09-20T05:27:36.263Z,0.00
2022-09-20T05:28:36.253Z,0.00
2022-09-20T05:29:36.247Z,0.00
2022-09-20T05:30:36.230Z,0.00
2022-09-20T05:31:36.279Z,0.00
2022-09-20T05:32:36.207Z,0.00
2022-09-20T05:33:36.220Z,0.00
2022-09-20T05:34:36.185Z,0.00
2022-09-20T05:35:36.172Z,0.00
2022-09-20T05:36:36.163Z,0.00
2022-09-20T05:37:36.151Z,0.00
2022-09-20T05:38:36.143Z,0.00
2022-09-20T05:39:36.125Z,0.00
2022-09-20T05:40:36.191Z,0.00
2022-09-20T05:41:36.113Z,0.00
2022-09-20T05:42:36.095Z,0.00
2022-09-20T05:43:36.085Z,0.00
2022-09-20T05:44:36.071Z,0.00
2022-09-20T05:45:36.109Z,0.00
2022-09-20T05:46:36.049Z,0.00
2022-09-20T05:47:36.061Z,0.00
2022-09-20T05:48:36.030Z,0.00
2022-09-20T05:49:36.037Z,0.00
2022-09-20T05:50:36.007Z,0.00
2022-09-20T05:51:35.995Z,0.00
2022-09-20T05:52:35.985Z,0.00
2022-09-20T05:53:35.975Z,0.00
2022-09-20T05:54:35.965Z,0.00
2022-09-20T05:55:35.950Z,0.00
2022-09-20T05:56:35.937Z,0.00
2022-09-20T05:57:35.932Z,0.00
2022-09-20T05:58:35.918Z,0.00
2022-09-20T05:59:35.904Z,0.00
2022-09-20T06:00:35.900Z,0.00
2022-09-20T06:01:35.888Z,0.00
2022-09-20T06:02:35.912Z,0.00
2022-09-20T06:03:35.859Z,0.00
2022-09-20T06:04:35.851Z,0.00
2022-09-20T06:05:35.864Z,0.00
2022-09-20T06:06:35.846Z,0.00
2022-09-20T06:07:35.817Z,0.00
2022-09-20T06:08:35.807Z,0.00
2022-09-20T06:09:35.795Z,0.00
2022-09-20T06:10:35.783Z,0.00
2022-09-20T06:11:35.787Z,0.00
2022-09-20T06:12:35.912Z,0.00
2022-09-20T06:13:35.748Z,0.00
2022-09-20T06:14:35.743Z,0.00
2022-09-20T06:15:35.726Z,0.00
2022-09-20T06:16:35.783Z,0.00
2022-09-20T06:17:35.712Z,0.00
2022-09-20T06:18:35.696Z,0.00
2022-09-20T06:19:35.682Z,0.00
2022-09-20T06:20:35.674Z,0.00
2022-09-20T06:21:35.683Z,0.00
2022-09-20T06:22:35.653Z,0.00
2022-09-20T06:23:35.659Z,0.00
2022-09-20T06:24:35.676Z,0.00
2022-09-20T06:25:35.619Z,0.00
2022-09-20T06:26:35.611Z,0.00
2022-09-20T06:27:35.596Z,0.00
2022-09-20T06:28:35.587Z,0.00
2022-09-20T06:29:35.574Z,0.00
2022-09-20T06:30:35.606Z,0.00
2022-09-20T06:31:35.552Z,0.00
2022-09-20T06:32:35.546Z,0.00
2022-09-20T06:33:35.529Z,0.00
2022-09-20T06:34:35.550Z,0.00
2022-09-20T06:35:35.546Z,0.00
2022-09-20T06:36:35.501Z,0.00
2022-09-20T06:37:35.519Z,0.00
2022-09-20T06:38:35.477Z,0.00
2022-09-20T06:39:35.472Z,0.00
2022-09-20T06:40:35.522Z,0.00
2022-09-20T06:41:35.447Z,0.00
2022-09-20T06:42:35.432Z,0.00
2022-09-20T06:43:35.432Z,0.00
2022-09-20T06:44:35.417Z,0.00
2022-09-20T06:45:35.465Z,0.00
2022-09-20T06:46:35.386Z,0.00
2022-09-20T06:47:38.681Z,0.00
2022-09-20T06:48:35.370Z,0.00
2022-09-20T06:49:35.357Z,0.00
2022-09-20T06:50:35.344Z,0.00
2022-09-20T06:51:35.331Z,0.00
2022-09-20T06:52:35.406Z,0.00
2022-09-20T06:53:35.358Z,0.00
2022-09-20T06:54:35.306Z,0.00
2022-09-20T06:55:35.287Z,0.00
2022-09-20T06:56:35.400Z,0.00
2022-09-20T06:57:35.264Z,0.00
2022-09-20T06:58:35.255Z,0.00
2022-09-20T06:59:35.342Z,0.00
2022-09-20T07:00:35.232Z,0.00
2022-09-20T07:01:35.510Z,0.00
2022-09-20T07:02:35.284Z,0.00
2022-09-20T07:03:35.222Z,0.00
2022-09-20T07:04:35.192Z,0.00
2022-09-20T07:05:35.176Z,0.00
2022-09-20T07:06:35.166Z,0.00
2022-09-20T07:07:35.158Z,0.00
2022-09-20T07:08:35.145Z,0.00
2022-09-20T07:09:35.156Z,0.00
2022-09-20T07:10:35.124Z,0.00
2022-09-20T07:11:35.148Z,0.00
2022-09-20T07:12:35.105Z,0.00
2022-09-20T07:13:35.089Z,0.00
2022-09-20T07:14:35.079Z,0.00
2022-09-20T07:15:35.065Z,0.00
2022-09-20T07:16:35.122Z,0.00
2022-09-20T07:17:35.043Z,0.00
2022-09-20T07:18:35.035Z,0.00
2022-09-20T07:19:35.038Z,0.00
2022-09-20T07:20:35.018Z,0.00
2022-09-20T07:21:35.020Z,0.00
2022-09-20T07:22:34.991Z,0.00
2022-09-20T07:23:34.977Z,0.00
2022-09-20T07:24:34.968Z,0.00
2022-09-20T07:25:34.976Z,0.00
2022-09-20T07:26:34.945Z,0.00
2022-09-20T07:27:34.931Z,0.00
2022-09-20T07:28:34.929Z,0.00
2022-09-20T07:29:34.925Z,0.00
2022-09-20T07:30:34.908Z,0.00
2022-09-20T07:31:34.927Z,0.00
2022-09-20T07:32:34.880Z,0.00
2022-09-20T07:33:34.866Z,0.00
2022-09-20T07:34:34.859Z,0.00
2022-09-20T07:35:34.844Z,0.00
2022-09-20T07:36:34.835Z,0.00
2022-09-20T07:37:37.144Z,0.00
2022-09-20T07:38:34.815Z,0.00
2022-09-20T07:39:35.016Z,0.00
2022-09-20T07:40:34.828Z,0.00
2022-09-20T07:41:34.800Z,0.00
2022-09-20T07:42:34.777Z,0.00
2022-09-20T07:43:34.756Z,0.71
2022-09-20T07:44:34.746Z,21.59
2022-09-20T07:45:34.795Z,16.52
2022-09-20T07:46:34.724Z,5.17
2022-09-20T07:47:34.714Z,9.03
2022-09-20T07:48:34.707Z,11.77
2022-09-20T07:49:34.713Z,12.59
2022-09-20T07:50:34.688Z,14.53
2022-09-20T07:51:34.670Z,7.21
2022-09-20T07:52:34.658Z,0.00
2022-09-20T07:53:34.651Z,5.38
2022-09-20T07:54:34.637Z,3.15
2022-09-20T07:55:34.623Z,7.43
2022-09-20T07:56:34.615Z,0.00
2022-09-20T07:57:34.622Z,8.04
2022-09-20T07:58:34.627Z,2.13
2022-09-20T07:59:34.583Z,9.24
2022-09-20T08:00:34.572Z,9.23
2022-09-20T08:01:34.588Z,44.99
2022-09-20T08:02:34.608Z,31.21
2022-09-20T08:03:34.541Z,35.75
2022-09-20T08:04:34.537Z,31.68
2022-09-20T08:05:34.532Z,34.09
2022-09-20T08:06:34.564Z,35.60
2022-09-20T08:07:34.691Z,45.08
2022-09-20T08:08:34.597Z,50.64
2022-09-20T08:09:34.669Z,46.68
2022-09-20T08:10:34.624Z,52.54
2022-09-20T08:11:34.595Z,43.02
2022-09-20T08:14:35.448Z,55.09
2022-09-20T08:15:34.421Z,70.89
2022-09-20T08:16:34.440Z,70.09
2022-09-20T08:17:34.384Z,71.30
2022-09-20T08:18:34.382Z,71.53
2022-09-20T08:19:34.366Z,69.28
2022-09-20T08:20:34.355Z,63.64
2022-09-20T08:21:34.341Z,67.07
2022-09-20T08:22:34.333Z,73.58
2022-09-20T08:23:34.370Z,74.29
2022-09-20T08:24:34.337Z,78.50
2022-09-20T08:25:34.296Z,84.73
2022-09-20T08:26:34.285Z,75.07
2022-09-20T08:27:34.286Z,79.08
2022-09-20T08:28:34.269Z,75.68
2022-09-20T08:29:34.276Z,77.09
2022-09-20T08:30:34.252Z,73.69
2022-09-20T08:31:34.473Z,67.97
2022-09-20T08:32:34.231Z,78.96
2022-09-20T08:33:34.236Z,75.40
2022-09-20T08:34:34.205Z,73.82
2022-09-20T08:35:38.086Z,72.55
2022-09-20T08:36:36.698Z,69.62
2022-09-20T08:37:34.175Z,63.71
2022-09-20T08:40:34.304Z,65.83
2022-09-20T08:41:34.140Z,64.92
2022-09-20T08:42:37.799Z,60.86
2022-09-20T08:43:35.136Z,55.40
2022-09-20T08:44:35.684Z,60.86
2022-09-20T08:45:35.931Z,52.84
2022-09-20T08:46:34.130Z,51.42
2022-09-20T08:47:34.070Z,74.20
2022-09-20T08:48:34.051Z,63.13
2022-09-20T08:49:34.046Z,49.38
2022-09-20T08:50:34.058Z,67.96
2022-09-20T08:51:34.025Z,73.97
2022-09-20T08:52:37.356Z,64.20
2022-09-20T08:53:34.002Z,58.54
2022-09-20T08:54:33.984Z,48.93
2022-09-20T08:55:37.305Z,48.40
2022-09-20T08:56:33.961Z,57.25
2022-09-20T08:57:33.952Z,53.67
2022-09-20T08:58:33.939Z,66.66
2022-09-20T08:59:33.955Z,63.32
2022-09-20T09:00:33.955Z,57.10
2022-09-20T09:01:33.936Z,57.78
2022-09-20T09:02:33.945Z,73.12
2022-09-20T09:03:33.887Z,65.52
2022-09-20T09:04:33.874Z,51.09
2022-09-20T09:05:33.878Z,47.64
2022-09-20T09:06:33.852Z,50.05
2022-09-20T09:07:33.843Z,64.54
2022-09-20T09:08:37.705Z,65.69
2022-09-20T09:09:37.784Z,66.50
2022-09-20T09:10:33.807Z,60.19
2022-09-20T09:11:33.798Z,60.46
2022-09-20T09:12:33.790Z,72.61
2022-09-20T09:13:33.775Z,68.43
2022-09-20T09:14:33.766Z,66.07
2022-09-20T09:15:33.753Z,61.08
2022-09-20T09:16:35.671Z,75.88
2022-09-20T09:17:33.762Z,72.48
2022-09-20T09:18:33.754Z,78.33
2022-09-20T09:19:34.177Z,73.02
2022-09-20T09:20:33.866Z,73.46
2022-09-20T09:21:33.688Z,87.18
2022-09-20T09:22:33.672Z,70.86
2022-09-20T09:23:33.663Z,71.70
2022-09-20T09:24:33.649Z,70.39
2022-09-20T09:25:33.640Z,61.60
2022-09-20T09:26:33.648Z,56.97
2022-09-20T09:27:33.619Z,54.44
2022-09-20T09:28:33.616Z,54.33
2022-09-20T09:29:34.939Z,40.16
2022-09-20T09:30:33.588Z,43.00
2022-09-20T09:31:33.608Z,39.15
2022-09-20T09:32:33.566Z,38.35
2022-09-20T09:33:33.582Z,37.64
2022-09-20T09:34:33.570Z,25.16
2022-09-20T09:35:33.532Z,23.04
2022-09-20T09:36:33.520Z,16.75
2022-09-20T09:37:33.522Z,16.46
2022-09-20T09:38:33.517Z,17.90
2022-09-20T09:39:33.488Z,20.05
2022-09-20T09:40:33.598Z,12.12
2022-09-20T09:41:33.466Z,6.32
2022-09-20T09:42:33.467Z,0.00
2022-09-20T09:43:33.446Z,0.00
2022-09-20T09:44:33.431Z,0.00
2022-09-20T09:45:33.498Z,0.00
2022-09-20T09:46:33.424Z,0.00
2022-09-20T09:47:33.420Z,0.00
2022-09-20T09:48:33.630Z,0.00
2022-09-20T09:49:33.427Z,0.00
2022-09-20T09:50:33.365Z,0.00
2022-09-20T09:51:33.358Z,0.00
2022-09-20T09:52:33.396Z,0.00
2022-09-20T09:53:33.338Z,0.00
2022-09-20T09:54:33.324Z,0.00
2022-09-20T09:55:33.330Z,0.00
2022-09-20T09:56:33.305Z,0.00
2022-09-20T09:57:33.291Z,0.00
2022-09-20T09:58:33.284Z,0.00
2022-09-20T09:59:33.271Z,0.00
2022-09-20T10:00:33.253Z,0.00
2022-09-20T10:01:33.726Z,0.00
2022-09-20T10:02:33.339Z,0.00
2022-09-20T10:03:33.232Z,0.00
2022-09-20T10:04:33.251Z,0.00
2022-09-20T10:05:33.224Z,0.00
2022-09-20T10:06:33.191Z,0.00
2022-09-20T10:07:33.180Z,0.00
2022-09-20T10:08:33.169Z,0.00
2022-09-20T10:09:33.155Z,0.00
2022-09-20T10:10:33.142Z,0.00
2022-09-20T10:11:33.137Z,0.00
2022-09-20T10:12:33.125Z,0.00
2022-09-20T10:13:37.071Z,0.00
2022-09-20T10:14:33.100Z,2.64
2022-09-20T10:15:33.090Z,0.00
2022-09-20T10:16:33.156Z,17.00
2022-09-20T10:17:33.357Z,44.37
2022-09-20T10:18:33.056Z,29.02
2022-09-20T10:19:33.051Z,28.59
2022-09-20T10:20:33.035Z,14.04
2022-09-20T10:21:33.047Z,28.96
2022-09-20T10:22:33.013Z,38.81
2022-09-20T10:24:01.430Z,45.09
2022-09-20T10:24:34.024Z,51.01
2022-09-20T10:25:32.983Z,58.86
2022-09-20T10:26:32.974Z,88.40
2022-09-20T10:27:32.961Z,63.93
2022-09-20T10:28:32.951Z,69.82
2022-09-20T10:29:32.939Z,72.07
2022-09-20T10:30:32.986Z,65.32
2022-09-20T10:31:33.001Z,54.61
2022-09-20T10:32:32.903Z,63.85
2022-09-20T10:33:32.910Z,54.03
2022-09-20T10:34:32.889Z,74.16
2022-09-20T10:35:32.888Z,65.54
2022-09-20T10:36:32.862Z,53.34
2022-09-20T10:37:32.875Z,55.19
2022-09-20T10:38:32.842Z,53.83
2022-09-20T10:39:32.834Z,46.46
2022-09-20T10:40:32.853Z,43.95
2022-09-20T10:41:32.813Z,49.42
2022-09-20T10:42:32.804Z,36.68
2022-09-20T10:43:32.795Z,55.15
2022-09-20T10:44:32.845Z,35.99
2022-09-20T10:46:08.324Z,31.73
2022-09-20T10:46:34.124Z,37.40
2022-09-20T10:47:32.826Z,27.67
2022-09-20T10:48:32.734Z,22.71
2022-09-20T10:49:32.731Z,33.96
2022-09-20T10:50:32.708Z,27.47
2022-09-20T10:51:32.705Z,35.28
2022-09-20T10:52:32.692Z,34.77
2022-09-20T10:53:32.757Z,30.21
2022-09-20T10:54:32.669Z,35.48
2022-09-20T10:55:32.658Z,41.77
2022-09-20T10:56:32.791Z,37.00
2022-09-20T10:57:32.634Z,24.02
2022-09-20T10:58:32.625Z,24.22
2022-09-20T10:59:32.623Z,35.48
2022-09-20T11:00:32.600Z,38.84
2022-09-20T11:01:32.688Z,26.47
2022-09-20T11:02:32.664Z,22.60
2022-09-20T11:03:32.605Z,24.13
2022-09-20T11:04:32.581Z,39.33
2022-09-20T11:05:32.550Z,34.89
2022-09-20T11:06:32.532Z,39.84
2022-09-20T11:07:32.803Z,34.17
2022-09-20T11:08:32.515Z,32.35
2022-09-20T11:09:32.522Z,42.49
2022-09-20T11:10:32.489Z,26.86
2022-09-20T11:11:32.481Z,27.56
2022-09-20T11:12:32.478Z,31.48
2022-09-20T11:13:32.456Z,29.76
2022-09-20T11:14:32.490Z,36.56
2022-09-20T11:15:32.444Z,30.48
2022-09-20T11:16:32.468Z,38.70
2022-09-20T11:17:32.415Z,31.01
2022-09-20T11:18:32.402Z,21.58
2022-09-20T11:19:32.420Z,21.88
2022-09-20T11:20:32.383Z,22.69
2022-09-20T11:21:32.369Z,37.49
2022-09-20T11:22:32.354Z,33.94
2022-09-20T11:23:32.346Z,34.26
2022-09-20T11:24:32.335Z,27.98
2022-09-20T11:25:32.364Z,28.69
2022-09-20T11:26:32.334Z,37.71
2022-09-20T11:27:32.305Z,27.97
2022-09-20T11:28:32.289Z,24.52
2022-09-20T11:29:32.310Z,25.01
2022-09-20T11:30:32.267Z,32.19
2022-09-20T11:31:32.343Z,33.81
2022-09-20T11:32:32.248Z,33.20
2022-09-20T11:33:32.239Z,31.26
2022-09-20T11:34:32.239Z,36.00
2022-09-20T11:35:32.224Z,35.60
2022-09-20T11:36:32.202Z,37.90
2022-09-20T11:37:32.195Z,35.58
2022-09-20T11:38:32.181Z,40.11
2022-09-20T11:39:32.171Z,33.02
2022-09-20T11:40:32.238Z,55.87
2022-09-20T11:41:32.178Z,66.31
2022-09-20T11:42:32.136Z,63.92
2022-09-20T11:43:32.130Z,65.26
2022-09-20T11:44:32.167Z,65.36
2022-09-20T11:45:32.177Z,64.15
2022-09-20T11:46:32.102Z,55.75
2022-09-20T11:47:53.334Z,47.53
2022-09-20T11:48:32.070Z,51.65
2022-09-20T11:49:32.066Z,46.58
2022-09-20T11:50:32.048Z,47.87
2022-09-20T11:51:32.038Z,49.96
2022-09-20T11:52:32.027Z,51.98
2022-09-20T11:53:36.508Z,62.48
2022-09-20T11:54:32.008Z,74.53
2022-09-20T11:55:32.071Z,74.06
2022-09-20T11:56:31.979Z,70.53
2022-09-20T11:57:31.992Z,66.11
2022-09-20T11:58:31.958Z,65.20
2022-09-20T11:59:31.946Z,64.35
2022-09-20T12:00:31.960Z,65.26
2022-09-20T12:01:31.926Z,60.71
2022-09-20T12:02:32.065Z,59.39
2022-09-20T12:03:32.030Z,53.70
2022-09-20T12:04:33.739Z,65.03
2022-09-20T12:05:31.889Z,51.68
2022-09-20T12:06:31.955Z,66.64
2022-09-20T12:07:31.900Z,71.09
2022-09-20T12:08:31.848Z,55.02
2022-09-20T12:09:31.841Z,56.53
2022-09-20T12:10:31.831Z,55.52
2022-09-20T12:11:31.823Z,51.07
2022-09-20T12:12:31.809Z,47.83
2022-09-20T12:13:31.827Z,62.02
2022-09-20T12:14:31.787Z,52.31
2022-09-20T12:15:31.779Z,55.07
2022-09-20T12:16:31.807Z,64.72
2022-09-20T12:17:31.807Z,54.49
2022-09-20T12:18:31.745Z,47.70
2022-09-20T12:19:31.733Z,53.47
2022-09-20T12:20:31.727Z,46.69
2022-09-20T12:21:31.711Z,54.18
2022-09-20T12:22:31.698Z,54.31
2022-09-20T12:23:31.692Z,54.51
2022-09-20T12:24:31.677Z,52.20
2022-09-20T12:25:31.916Z,62.34
2022-09-20T12:26:31.660Z,57.68
2022-09-20T12:27:31.675Z,58.59
2022-09-20T12:28:31.640Z,53.91
2022-09-20T12:29:31.643Z,64.44
2022-09-20T12:30:31.612Z,55.60
2022-09-20T12:31:31.786Z,64.31
2022-09-20T12:32:31.595Z,56.92
2022-09-20T12:33:31.579Z,64.51
2022-09-20T12:34:31.568Z,67.45
2022-09-20T12:35:31.556Z,71.91
2022-09-20T12:36:31.548Z,74.64
2022-09-20T12:37:31.557Z,70.49
2022-09-20T12:38:31.601Z,73.80
2022-09-20T12:39:31.512Z,71.44
2022-09-20T12:40:31.661Z,68.80
2022-09-20T12:41:31.490Z,71.40
2022-09-20T12:42:31.482Z,79.35
2022-09-20T12:43:31.470Z,84.91
2022-09-20T12:44:31.460Z,80.44
2022-09-20T12:45:31.527Z,67.15
2022-09-20T12:46:31.434Z,69.34
2022-09-20T12:47:31.427Z,79.55
2022-09-20T12:48:32.303Z,75.92
2022-09-20T12:49:31.425Z,75.75
2022-09-20T12:50:31.964Z,71.60
2022-09-20T12:51:31.382Z,73.19
2022-09-20T12:52:31.378Z,70.56
2022-09-20T12:53:31.361Z,83.64
2022-09-20T12:54:31.347Z,83.58
2022-09-20T12:55:31.340Z,75.68
2022-09-20T12:56:31.329Z,81.54
2022-09-20T12:57:31.330Z,93.54
2022-09-20T12:58:31.328Z,93.44
2022-09-20T12:59:31.306Z,96.41
2022-09-20T13:00:31.288Z,95.17
2022-09-20T13:01:31.348Z,95.58
2022-09-20T13:02:31.875Z,89.60
2022-09-20T13:03:31.248Z,92.20
2022-09-20T13:04:31.238Z,95.61
2022-09-20T13:05:31.248Z,93.05
2022-09-20T13:06:31.222Z,93.19
2022-09-20T13:07:31.207Z,97.33
2022-09-20T13:08:31.255Z,96.36
2022-09-20T13:09:31.209Z,93.35
2022-09-20T13:10:31.173Z,97.29
2022-09-20T13:11:31.160Z,94.87
2022-09-20T13:12:31.159Z,96.25
2022-09-20T13:13:31.151Z,95.60